Latest Weather Observations for Lady Elliot Island

IDQ60801

Issued at 5:02 pm EST Friday 31 July 2015 (issued every 30 minutes, with the page automatically refreshed every 10 minutes)

About weather observations | Map of weather stations | Latest weather observations for QLD | Other Formats
Station Details ID: 039059 Name: LADY ELLIOT ISLAND Lat: -24.11 Lon: 152.72 Height: 3.6 m
Data from the previous 72 hours. | See also: Recent months at Lady Elliot Island
Date/Time
EST
Temp
°C
App
Temp
°C
Dew
Point
Rel
Hum
%
Delta-T
°C
Wind Press
QNH
hPa
Press
MSL
hPa
Rain
since 9 am
mm
Dir
 
Spd
km/h
Gust
km/h
Spd
kts
Gust
kts
31/05:00pm 19.6 18.6 12.4 63 4.0 SE 9 11 5 6 1020.6 - 0.0
31/04:30pm 20.5 19.5 12.3 59 4.6 SSE 9 11 5 6 1020.4 - 0.0
31/04:00pm 21.0 20.1 12.7 59 4.7 S 9 13 5 7 1020.5 - 0.0
31/03:30pm 21.3 20.3 13.4 60 4.5 S 11 15 6 8 1020.6 - 0.0
31/03:00pm 21.5 20.4 13.1 58 4.8 S 11 17 6 9 1020.7 1020.7 0.0
31/02:30pm 21.3 20.2 13.2 60 4.6 S 11 17 6 9 1020.8 - 0.0
31/02:00pm 21.8 20.3 13.0 57 5.0 S 13 17 7 9 1020.9 - 0.0
31/01:30pm 21.9 20.6 13.8 60 4.7 SSE 13 19 7 10 1021.3 - 0.0
31/01:00pm 21.7 20.6 14.3 62 4.3 SSE 13 19 7 10 1021.8 - 0.0
31/12:30pm 22.0 21.2 15.1 65 4.1 SSE 13 20 7 11 1022.2 - 0.0
31/12:00pm 21.8 20.8 14.6 63 4.2 SSE 13 19 7 10 1022.8 1022.8 0.0
31/11:30am 22.2 21.4 15.1 64 4.2 S 13 17 7 9 1023.4 - 0.0
31/11:00am 22.2 21.0 13.9 59 4.8 S 13 20 7 11 1023.6 - 0.0
31/10:30am 21.8 20.2 13.8 60 4.6 S 15 20 8 11 1023.7 - 0.0
31/10:00am 21.5 19.6 14.1 62 4.3 SSE 17 24 9 13 1023.9 - 0.0
31/09:30am 21.3 20.1 15.0 67 3.7 SSE 15 20 8 11 1024.0 - 0.0
31/09:00am 21.1 20.7 16.1 73 3.0 SSE 13 20 7 11 1023.8 1023.8 0.4
31/08:30am 20.6 19.6 15.5 72 3.0 SSE 15 20 8 11 1023.5 - 0.4
31/08:00am 20.5 19.7 16.0 75 2.7 SSE 15 22 8 12 1023.1 - 0.4
31/07:30am 20.0 18.4 13.9 68 3.5 SSE 15 22 8 12 1023.1 - 0.2
31/07:00am 19.8 17.9 13.1 65 3.8 SSE 15 22 8 12 1023.1 - 0.2
31/06:30am 19.8 18.3 13.1 65 3.8 SSE 13 20 7 11 1022.8 - 0.2
31/06:00am 19.6 17.4 13.2 66 3.6 SE 17 22 9 12 1022.4 1022.4 0.2
31/05:30am 19.7 17.5 13.4 67 3.6 SSE 17 20 9 11 1021.9 - 0.2
31/05:00am 19.6 18.0 14.0 70 3.2 SSE 15 22 8 12 1021.7 - 0.2
31/04:30am 19.6 18.2 14.4 72 3.0 SSE 15 24 8 13 1021.7 - 0.2
31/04:00am 19.7 18.2 14.3 71 3.1 S 15 24 8 13 1021.7 - 0.2
31/03:30am 18.7 18.3 14.2 75 2.6 SE 9 11 5 6 1021.9 - 0.2
31/03:00am 19.0 16.5 13.5 70 3.1 ESE 19 26 10 14 1021.9 1021.9 0.2
31/02:30am 19.5 18.9 14.7 74 2.8 S 11 15 6 8 1022.1 - 0.2
31/02:00am 19.6 18.5 14.4 72 3.0 S 13 19 7 10 1022.4 - 0.2
31/01:30am 19.5 18.2 13.7 69 3.3 SSE 13 24 7 13 1022.8 - 0.2
31/01:00am 19.1 15.7 13.8 71 3.0 ESE 24 32 13 17 1023.3 - 0.2
31/12:30am 19.0 16.4 14.9 77 2.4 SE 22 33 12 18 1023.4 - 0.2
31/12:00am 18.8 14.4 15.6 82 1.9 ESE 33 41 18 22 1023.7 1023.7 0.2
 
Date/Time
EST
Temp
°C
App
Temp
°C
Dew
Point
Rel
Hum
%
Delta-T
°C
Wind Press
QNH
hPa
Press
MSL
hPa
Rain
since 9 am
mm
Dir
 
Spd
km/h
Gust
km/h
Spd
kts
Gust
kts
30/11:52pm 19.2 15.4 15.8 81 2.0 ESE 30 41 16 22 1023.8 - 0.2
30/11:30pm 19.9 19.5 15.1 74 2.8 SSW 11 20 6 11 1023.9 - 0.2
30/11:00pm 20.1 17.9 14.8 71 3.1 SE 20 28 11 15 1024.0 - 0.2
30/10:30pm 20.2 18.1 15.3 73 2.9 SSE 20 28 11 15 1024.0 - 0.2
30/10:00pm 20.1 17.9 14.8 71 3.1 SSE 20 30 11 16 1023.9 - 0.2
30/09:30pm 20.0 16.4 14.3 69 3.3 SE 26 33 14 18 1023.6 - 0.2
30/09:00pm 20.1 16.4 14.0 68 3.5 SE 26 33 14 18 1023.5 1023.5 0.2
30/08:30pm 20.2 16.0 14.7 70 3.2 SE 30 37 16 20 1023.4 - 0.2
30/08:00pm 19.9 16.9 14.7 72 3.0 SE 24 32 13 17 1023.4 - 0.2
30/07:30pm 20.3 17.4 13.9 66 3.7 SE 22 32 12 17 1023.9 - 0.2
30/07:00pm 20.2 16.5 13.9 67 3.6 SE 26 33 14 18 1023.5 - 0.2
30/06:30pm 20.2 16.7 13.3 64 3.9 SE 24 30 13 16 1023.2 - 0.2
30/06:00pm 20.1 16.7 13.6 66 3.7 SE 24 32 13 17 1022.9 1022.9 0.2
30/05:30pm 19.9 16.3 14.2 69 3.3 SE 26 33 14 18 1022.8 - 0.2
30/05:00pm 20.1 16.0 15.0 72 3.0 SE 30 37 16 20 1022.7 - 0.2
30/04:30pm 20.5 17.2 14.1 66 3.7 SE 24 32 13 17 1022.6 - 0.2
30/04:00pm 20.9 17.6 14.0 64 4.0 SE 24 33 13 18 1022.6 - 0.2
30/03:30pm 20.9 17.4 14.4 66 3.8 SE 26 35 14 19 1022.5 - 0.2
30/03:00pm 21.2 17.8 14.7 66 3.8 SE 26 33 14 18 1022.7 1022.7 0.2
30/02:30pm 20.3 18.5 16.1 77 2.5 SSE 20 30 11 16 1022.8 - 0.2
30/02:00pm 21.1 19.0 16.1 73 3.0 SSE 22 33 12 18 1023.2 - 0.2
30/01:30pm 20.8 18.1 15.6 72 3.1 SSE 24 33 13 18 1023.4 - 0.2
30/01:00pm 20.7 18.1 16.0 74 2.8 SSE 24 35 13 19 1023.8 - 0.2
30/12:30pm 21.0 19.0 16.5 75 2.7 S 22 35 12 19 1024.0 - 0.2
30/12:00pm 20.8 19.1 16.3 75 2.7 S 20 33 11 18 1024.5 1024.5 0.2
30/11:30am 20.7 18.2 16.2 75 2.7 SSE 24 33 13 18 1024.8 - 0.0
30/11:00am 20.2 17.3 16.0 77 2.5 SSE 26 35 14 19 1025.2 - 0.0
30/10:30am 20.8 17.7 15.6 72 3.1 SSE 26 37 14 20 1025.3 - 0.0
30/10:00am 19.5 16.8 15.6 78 2.3 SSE 24 35 13 19 1025.5 - 0.0
30/09:30am 19.6 16.7 15.2 76 2.6 SSE 24 35 13 19 1025.6 - 0.0
30/09:00am 19.8 16.6 15.4 76 2.6 SSE 26 35 14 19 1025.5 1025.5 8.8
30/08:30am 19.8 15.4 14.1 69 3.3 SSE 30 41 16 22 1025.4 - 8.8
30/08:00am 19.7 15.3 14.1 70 3.2 SE 30 43 16 23 1025.2 - 8.8
30/07:30am 19.7 15.7 14.1 70 3.2 SSE 28 41 15 22 1025.2 - 8.8
30/07:00am 19.9 16.0 14.4 70 3.2 SE 28 37 15 20 1024.9 - 8.8
30/06:46am 19.1 14.4 14.8 76 2.5 SE 33 43 18 23 1024.7 - 8.8
30/06:30am 18.6 12.7 14.8 78 2.2 ESE 39 46 21 25 1024.5 - 8.8
30/06:00am 19.5 14.5 13.5 68 3.4 SE 32 43 17 23 1024.5 1024.5 8.6
30/05:30am 19.4 14.4 14.0 71 3.1 SE 33 46 18 25 1024.6 - 8.6
30/05:00am 19.2 14.5 14.3 73 2.8 SE 32 46 17 25 1024.5 - 8.6
30/04:30am 18.4 12.6 14.9 80 2.0 SE 39 50 21 27 1024.5 - 8.6
30/04:26am 18.3 13.0 15.2 82 1.8 ESE 37 52 20 28 1024.4 - 8.6
30/04:18am 18.4 14.2 16.2 87 1.3 E 33 52 18 28 1024.3 - 8.0
30/04:00am 18.7 14.7 15.1 79 2.1 ESE 30 39 16 21 1024.4 - 7.6
30/03:30am 19.3 14.3 13.9 71 3.1 SE 33 44 18 24 1024.5 - 7.2
30/03:00am 18.3 14.4 15.6 84 1.6 SSE 30 39 16 21 1024.6 1024.6 7.2
30/02:30am 18.8 14.3 15.0 78 2.2 SE 32 46 17 25 1024.7 - 7.0
30/02:24am 18.5 14.8 15.1 80 2.0 SE 28 46 15 25 1024.8 - 7.0
30/02:00am 17.8 12.0 15.9 89 1.1 SE 41 54 22 29 1025.2 - 6.8
30/01:30am 18.6 14.3 15.5 82 1.8 SE 32 50 17 27 1025.6 - 6.8
30/01:22am 19.0 14.5 15.0 77 2.3 SE 32 50 17 27 1025.6 - 6.8
30/01:00am 18.9 14.2 14.2 74 2.7 SE 32 44 17 24 1025.8 - 6.6
30/12:45am 18.2 13.4 15.5 84 1.6 SE 35 56 19 30 1025.9 - 6.4
30/12:30am 18.8 14.6 15.6 82 1.9 SSE 32 46 17 25 1025.9 - 6.4
30/12:16am 19.1 14.8 15.5 79 2.1 SSE 32 48 17 26 1026.1 - 6.4
30/12:00am 18.6 12.8 14.0 74 2.6 ESE 37 52 20 28 1026.2 1026.2 6.4
 
Date/Time
EST
Temp
°C
App
Temp
°C
Dew
Point
Rel
Hum
%
Delta-T
°C
Wind Press
QNH
hPa
Press
MSL
hPa
Rain
since 9 am
mm
Dir
 
Spd
km/h
Gust
km/h
Spd
kts
Gust
kts
29/11:46pm 18.9 14.6 15.8 82 1.8 SE 33 54 18 29 1026.3 - 6.4
29/11:30pm 18.9 14.5 15.7 82 1.9 SSE 33 46 18 25 1026.5 - 6.4
29/11:14pm 18.7 13.5 15.5 81 1.9 SE 37 56 20 30 1026.5 - 6.4
29/11:00pm 18.7 13.3 16.0 84 1.6 ESE 39 54 21 29 1026.6 - 6.4
29/10:57pm 18.7 13.1 15.6 82 1.8 ESE 39 48 21 26 1026.6 - 6.2
29/10:30pm 19.6 14.8 14.6 73 2.9 SSE 33 46 18 25 1026.6 - 6.0
29/09:30pm 19.7 14.4 14.1 70 3.2 SSE 35 50 19 27 1026.7 - 6.0
29/09:00pm 19.5 14.5 14.1 71 3.1 SSE 33 48 18 26 1026.7 1026.7 6.0
29/08:30pm 19.5 13.5 14.5 73 2.9 SE 39 54 21 29 1026.7 - 6.0
29/08:00pm 19.7 14.4 14.3 71 3.1 SSE 35 48 19 26 1026.6 - 6.0
29/07:50pm 19.2 14.0 14.5 74 2.7 SE 35 54 19 29 1026.6 - 6.0
29/07:41pm 18.3 13.2 15.7 85 1.5 ESE 37 56 20 30 1026.7 - 6.0
29/07:30pm 19.5 14.5 13.9 70 3.2 SSE 33 50 18 27 1026.4 - 5.8
29/07:00pm 19.6 14.5 13.6 68 3.4 SSE 33 46 18 25 1026.2 - 5.8
29/06:30pm 18.9 14.0 14.4 75 2.6 SE 33 44 18 24 1026.0 - 5.8
29/06:00pm 18.9 13.4 14.6 76 2.5 SE 37 48 20 26 1026.0 1026.0 2.8
29/05:38pm 19.0 13.7 15.4 79 2.1 SE 37 61 20 33 1025.8 - 2.6
29/05:30pm 19.1 13.6 14.6 75 2.6 SE 37 48 20 26 1025.7 - 2.6
29/05:00pm 18.5 14.0 15.4 82 1.8 ESE 33 48 18 26 1025.7 - 2.0
29/04:30pm 18.0 13.7 15.8 87 1.3 ESE 33 50 18 27 1025.6 - 2.0
29/04:15pm 20.1 16.1 15.2 73 2.9 SE 30 52 16 28 1025.4 - 0.0
29/04:00pm 20.9 15.4 14.7 67 3.6 SE 37 48 20 26 1025.1 - 0.0
29/03:30pm 20.7 15.2 12.3 58 4.7 SE 33 44 18 24 1025.1 - 0.0
29/03:00pm 21.2 16.2 13.5 61 4.4 SE 32 43 17 23 1025.3 1025.3 0.0
29/02:30pm 20.9 17.0 14.3 66 3.8 SSE 28 41 15 22 1025.5 - 0.0
29/02:13pm 20.4 16.8 15.3 72 3.0 SSE 28 46 15 25 1025.7 - 0.0
29/02:00pm 20.2 16.6 15.3 73 2.9 S 28 39 15 21 1025.9 - 0.0
29/01:30pm 20.1 16.8 15.0 72 3.0 S 26 41 14 22 1026.1 - 0.0
29/01:00pm 20.2 17.2 14.9 71 3.1 S 24 35 13 19 1026.3 - 0.0
29/12:30pm 20.3 17.1 15.2 72 3.0 SSE 26 39 14 21 1026.6 - 0.0
29/12:00pm 20.3 16.8 15.4 73 2.9 SSE 28 43 15 23 1027.1 1027.1 0.0
29/11:30am 20.3 16.6 15.0 71 3.1 SSE 28 39 15 21 1027.6 - 0.0
29/11:00am 19.9 15.8 14.9 73 2.9 SSE 30 44 16 24 1028.0 - 0.0
29/10:30am 19.9 16.0 14.4 70 3.2 S 28 43 15 23 1028.4 - 0.0
29/10:00am 19.5 15.7 14.7 74 2.8 S 28 44 15 24 1028.6 - 0.0
29/09:30am 19.5 15.9 14.3 72 3.0 S 26 39 14 21 1028.6 - 0.0
29/09:00am 19.1 14.4 14.4 74 2.7 SSE 32 44 17 24 1028.4 1028.4 0.0
29/08:30am 19.2 16.8 15.3 78 2.3 S 22 37 12 20 1028.4 - 0.0
29/08:00am 18.9 15.3 14.2 74 2.7 SSE 26 39 14 21 1028.2 - 0.0
29/07:30am 18.6 15.2 13.8 73 2.7 S 24 35 13 19 1028.0 - 0.0
29/06:00am 18.7 14.0 12.0 65 3.7 SSE 28 39 15 21 1027.4 1027.4 0.0
29/05:44am 18.9 14.3 12.2 65 3.7 SSE 28 46 15 25 1027.4 - 0.0
29/05:30am 18.9 13.8 12.0 64 3.8 SSE 30 44 16 24 1027.2 - 0.0
29/05:00am 18.9 13.9 12.2 65 3.7 SSE 30 41 16 22 1027.0 - 0.0
29/04:30am 18.8 14.1 11.9 64 3.8 SSE 28 43 15 23 1026.8 - 0.0
29/04:00am 18.7 13.6 10.5 59 4.4 SSE 28 39 15 21 1026.8 - 0.0
29/03:30am 18.8 13.6 10.1 57 4.6 SSE 28 41 15 22 1026.9 - 0.0
29/03:00am 19.0 13.4 10.2 56 4.7 SE 30 43 16 23 1027.0 1027.0 0.0
29/02:30am 18.7 12.1 8.4 51 5.3 SE 33 44 18 24 1027.1 - 0.0
29/02:00am 18.8 11.3 4.2 38 6.9 SE 33 46 18 25 1027.1 - 0.0
29/01:30am 19.1 11.3 6.6 44 6.2 SE 37 48 20 26 1027.3 - 0.0
29/01:00am 18.9 11.3 8.9 52 5.2 SE 39 50 21 27 1027.5 - 0.0
29/12:30am 19.0 11.0 9.0 52 5.2 SE 41 52 22 28 1027.6 - 0.0
29/12:00am 19.1 11.5 8.9 51 5.3 SE 39 50 21 27 1027.5 1027.5 0.0
 
Date/Time
EST
Temp
°C
App
Temp
°C
Dew
Point
Rel
Hum
%
Delta-T
°C
Wind Press
QNH
hPa
Press
MSL
hPa
Rain
since 9 am
mm
Dir
 
Spd
km/h
Gust
km/h
Spd
kts
Gust
kts
28/11:30pm 19.1 11.3 9.8 55 4.9 SE 41 52 22 28 1027.7 - 0.0
28/11:00pm 19.5 11.4 10.1 54 5.0 SE 43 54 23 29 1027.9 - 0.0
28/10:30pm 19.5 11.7 11.2 58 4.5 SE 43 54 23 29 1028.1 - 0.0
28/10:00pm 19.7 12.8 10.4 55 5.0 SE 37 46 20 25 1028.1 - 0.0
28/09:30pm 19.7 13.5 11.5 59 4.5 SE 35 46 19 25 1028.1 - 0.0
28/09:00pm 19.6 12.4 10.7 56 4.8 SE 39 52 21 28 1028.0 1028.0 0.0
28/08:30pm 19.9 12.5 9.7 51 5.4 SE 39 48 21 26 1027.8 - 0.0
28/08:00pm 19.9 12.9 11.1 57 4.8 SE 39 50 21 27 1027.7 - 0.0
28/07:30pm 19.7 12.1 10.6 55 4.9 SE 41 54 22 29 1027.5 - 0.0
28/07:00pm 19.8 12.5 11.4 58 4.6 SE 41 52 22 28 1027.3 - 0.0
28/06:30pm 19.8 13.1 12.2 61 4.2 SE 39 48 21 26 1026.9 - 0.0
28/06:00pm 19.8 13.5 12.2 61 4.2 SE 37 50 20 27 1026.5 1026.5 0.0
28/05:30pm 19.8 12.9 12.7 63 4.0 SE 41 50 22 27 1026.2 - 0.0

Other Formats:

Comma delimited format used in spreadsheet applications
http://www.bom.gov.au/fwo/IDQ60801/IDQ60801.94388.axf

JavaScript Object Notation format (JSON) in row-major order
http://www.bom.gov.au/fwo/IDQ60801/IDQ60801.94388.json